createdAt,value
2018-03-02T00:00:53.703Z,4.97
2018-03-02T00:03:32.370Z,5.67
2018-03-02T00:06:10.842Z,4.27
2018-03-02T00:08:49.359Z,7.60
2018-03-02T00:11:29.005Z,7.30
2018-03-02T00:14:07.899Z,7.20
2018-03-02T00:16:46.620Z,7.20
2018-03-02T00:19:26.608Z,6.93
2018-03-02T00:22:05.226Z,5.40
2018-03-02T00:24:43.818Z,15.30
2018-03-02T00:27:26.556Z,30.75
2018-03-02T00:30:06.300Z,10.90
2018-03-02T00:32:46.668Z,5.40
2018-03-02T00:35:30.451Z,6.68
2018-03-02T00:38:10.289Z,4.57
2018-03-02T00:40:49.027Z,5.18
2018-03-02T00:43:28.567Z,4.32
2018-03-02T00:46:07.302Z,9.23
2018-03-02T00:48:46.485Z,5.60
2018-03-02T00:51:27.158Z,7.78
2018-03-02T00:54:09.390Z,6.35
2018-03-02T00:56:49.199Z,9.05
2018-03-02T00:59:27.590Z,12.13
2018-03-02T01:02:07.287Z,8.50
2018-03-02T01:04:49.579Z,5.65
2018-03-02T01:07:28.768Z,8.75
2018-03-02T01:10:07.165Z,11.23
2018-03-02T01:12:45.729Z,25.83
2018-03-02T01:15:25.371Z,23.40
2018-03-02T01:18:03.926Z,8.40
2018-03-02T01:20:42.185Z,6.95
2018-03-02T01:23:20.371Z,4.50
2018-03-02T01:25:59.873Z,9.07
2018-03-02T01:28:38.809Z,4.00
2018-03-02T01:31:17.708Z,20.65
2018-03-02T01:33:56.414Z,20.98
2018-03-02T01:36:37.818Z,9.15
2018-03-02T01:39:16.079Z,7.28
2018-03-02T01:41:54.893Z,9.20
2018-03-02T01:44:34.479Z,4.90
2018-03-02T01:47:16.221Z,6.85
2018-03-02T01:49:54.956Z,3.83
2018-03-02T01:52:33.767Z,5.87
2018-03-02T01:55:14.417Z,7.35
2018-03-02T01:57:53.293Z,8.15
2018-03-02T02:00:33.682Z,8.40
2018-03-02T02:03:12.393Z,7.62
2018-03-02T02:05:53.573Z,7.10
2018-03-02T02:08:33.653Z,9.23
2018-03-02T02:11:11.016Z,7.55
2018-03-02T02:13:49.614Z,4.20
2018-03-02T02:16:27.716Z,6.10
2018-03-02T02:19:10.165Z,8.00
2018-03-02T02:21:51.657Z,14.95
2018-03-02T02:24:30.537Z,27.20
2018-03-02T02:27:08.972Z,9.05
2018-03-02T02:29:47.649Z,25.42
2018-03-02T02:32:26.245Z,18.45
2018-03-02T02:35:05.756Z,18.70
2018-03-02T02:37:44.256Z,21.90
2018-03-02T02:40:22.052Z,13.77
2018-03-02T02:43:02.210Z,5.68
2018-03-02T02:45:43.180Z,3.92
2018-03-02T02:48:22.253Z,6.68
2018-03-02T02:51:18.087Z,5.30
2018-03-02T02:53:57.987Z,7.70
2018-03-02T02:56:36.713Z,5.28
2018-03-02T02:59:16.762Z,3.42
2018-03-02T03:01:56.923Z,4.15
2018-03-02T03:07:19.744Z,3.83
2018-03-02T03:10:00.337Z,5.60
2018-03-02T03:12:38.772Z,6.03
2018-03-02T03:15:18.202Z,5.97
2018-03-02T03:17:56.751Z,5.68
2018-03-02T03:20:35.696Z,5.75
2018-03-02T03:23:14.358Z,6.22
2018-03-02T03:25:56.115Z,3.20
2018-03-02T03:28:39.007Z,7.68
2018-03-02T03:31:19.479Z,28.83
2018-03-02T03:34:03.023Z,21.95
2018-03-02T03:36:43.085Z,11.10
2018-03-02T03:39:23.748Z,8.70
2018-03-02T03:42:02.506Z,9.50
2018-03-02T03:44:41.154Z,6.30
2018-03-02T03:47:20.102Z,9.52
2018-03-02T03:49:59.243Z,5.78
2018-03-02T03:52:38.945Z,8.73
2018-03-02T03:55:17.845Z,34.80
2018-03-02T03:57:58.592Z,9.20
2018-03-02T04:00:39.010Z,22.65
2018-03-02T04:03:18.103Z,47.17
2018-03-02T04:05:56.796Z,102.97
2018-03-02T04:08:36.366Z,64.82
2018-03-02T04:11:14.891Z,80.05
2018-03-02T04:13:53.353Z,39.50
2018-03-02T04:16:33.823Z,36.53
2018-03-02T04:19:14.308Z,47.38
2018-03-02T04:21:55.739Z,41.30
2018-03-02T04:24:35.447Z,39.60
2018-03-02T04:27:15.198Z,33.28
2018-03-02T04:29:54.774Z,30.88
2018-03-02T04:32:34.237Z,12.63
2018-03-02T04:35:12.891Z,7.32
2018-03-02T04:37:51.365Z,12.55
2018-03-02T04:40:30.919Z,11.75
2018-03-02T04:43:11.430Z,16.75
2018-03-02T04:45:51.951Z,14.00
2018-03-02T04:48:32.697Z,5.43
2018-03-02T04:51:11.076Z,5.12
2018-03-02T04:53:49.598Z,7.60
2018-03-02T04:56:29.428Z,7.90
2018-03-02T04:59:09.051Z,4.62
2018-03-02T05:01:50.008Z,4.45
2018-03-02T05:04:28.784Z,3.80
2018-03-02T05:07:08.823Z,6.00
2018-03-02T05:09:47.808Z,5.80
2018-03-02T05:12:28.006Z,6.95
2018-03-02T05:15:07.876Z,4.10
2018-03-02T05:17:48.460Z,4.40
2018-03-02T05:20:27.079Z,3.87
2018-03-02T05:23:05.619Z,3.95
2018-03-02T05:25:44.187Z,3.83
2018-03-02T05:28:25.647Z,2.70
2018-03-02T05:31:06.559Z,4.35
2018-03-02T05:33:45.182Z,2.83
2018-03-02T05:36:24.145Z,3.65
2018-03-02T05:39:02.864Z,3.28
2018-03-02T05:41:43.654Z,3.42
2018-03-02T05:44:24.300Z,2.40
2018-03-02T05:47:05.919Z,3.70
2018-03-02T05:49:45.632Z,2.65
2018-03-02T05:52:24.468Z,2.28
2018-03-02T05:55:02.750Z,6.10
2018-03-02T05:57:42.492Z,3.05
2018-03-02T06:00:22.119Z,4.32
2018-03-02T06:03:01.978Z,3.28
2018-03-02T06:05:41.851Z,3.10
2018-03-02T06:08:22.833Z,3.70
2018-03-02T06:11:02.448Z,2.50
2018-03-02T06:13:40.945Z,3.28
2018-03-02T06:16:22.548Z,2.00
2018-03-02T06:19:02.104Z,2.30
2018-03-02T06:21:41.998Z,3.80
2018-03-02T06:24:21.746Z,2.30
2018-03-02T06:27:01.641Z,1.65
2018-03-02T06:29:43.684Z,1.52
2018-03-02T06:32:23.260Z,2.33
2018-03-02T06:35:02.078Z,2.85
2018-03-02T06:37:41.032Z,2.35
2018-03-02T06:40:19.884Z,2.37
2018-03-02T06:42:58.418Z,2.00
2018-03-02T06:45:38.207Z,9.82
2018-03-02T06:48:18.778Z,12.50
2018-03-02T06:50:59.427Z,5.75
2018-03-02T06:53:38.501Z,2.95
2018-03-02T06:56:18.877Z,4.28
2018-03-02T06:58:57.457Z,3.08
2018-03-02T07:01:39.107Z,2.28
2018-03-02T07:04:18.951Z,2.28
2018-03-02T07:06:57.401Z,4.45
2018-03-02T07:09:36.981Z,3.70
2018-03-02T07:12:15.502Z,1.70
2018-03-02T07:14:58.329Z,3.08
2018-03-02T07:17:38.856Z,4.90
2018-03-02T07:20:18.596Z,3.55
2018-03-02T07:22:57.438Z,1.67
2018-03-02T07:25:36.003Z,2.50
2018-03-02T07:28:15.628Z,2.05
2018-03-02T07:30:57.367Z,1.55
2018-03-02T07:33:38.101Z,2.28
2018-03-02T07:36:17.690Z,1.70
2018-03-02T07:38:56.405Z,1.50
2018-03-02T07:41:35.266Z,2.03
2018-03-02T07:44:13.964Z,2.92
2018-03-02T07:46:52.447Z,2.10
2018-03-02T07:49:31.941Z,3.22
2018-03-02T07:52:13.564Z,2.47
2018-03-02T07:54:53.419Z,4.10
2018-03-02T07:57:34.020Z,2.42
2018-03-02T08:00:13.730Z,2.37
2018-03-02T08:02:54.411Z,3.30
2018-03-02T08:05:33.065Z,2.62
2018-03-02T08:08:12.749Z,1.65
2018-03-02T08:10:54.352Z,1.75
2018-03-02T08:13:33.108Z,2.25
2018-03-02T08:16:11.759Z,1.65
2018-03-02T08:18:51.244Z,2.00
2018-03-02T08:21:29.660Z,2.05
2018-03-02T08:24:08.009Z,1.73
2018-03-02T08:26:46.792Z,1.40
2018-03-02T08:29:25.427Z,2.45
2018-03-02T08:32:06.288Z,1.73
2018-03-02T08:34:44.904Z,2.80
2018-03-02T08:37:23.299Z,2.83
2018-03-02T08:40:02.165Z,1.70
2018-03-02T08:42:44.702Z,1.80
2018-03-02T08:45:24.364Z,1.80
2018-03-02T08:48:03.005Z,3.55
2018-03-02T08:50:41.414Z,2.10
2018-03-02T08:53:22.200Z,1.58
2018-03-02T08:56:01.087Z,2.12
2018-03-02T08:58:40.836Z,1.55
2018-03-02T09:01:21.302Z,1.60
2018-03-02T09:04:00.912Z,1.58
2018-03-02T09:06:42.424Z,3.90
2018-03-02T09:09:20.587Z,1.58
2018-03-02T09:12:02.539Z,1.80
2018-03-02T09:14:41.034Z,2.12
2018-03-02T09:17:20.105Z,3.37
2018-03-02T09:20:01.834Z,2.85
2018-03-02T09:22:40.680Z,4.15
2018-03-02T09:25:20.543Z,3.22
2018-03-02T09:27:59.007Z,2.20
2018-03-02T09:30:36.728Z,3.53
2018-03-02T09:33:15.315Z,2.97
2018-03-02T09:35:55.930Z,3.45
2018-03-02T09:38:33.621Z,2.10
2018-03-02T09:41:12.141Z,3.05
2018-03-02T09:43:51.737Z,3.55
2018-03-02T09:46:31.240Z,2.00
2018-03-02T09:51:53.780Z,1.90
2018-03-02T09:54:33.815Z,1.42
2018-03-02T09:57:12.410Z,2.70
2018-03-02T09:59:53.076Z,1.90
2018-03-02T10:02:32.764Z,2.33
2018-03-02T10:05:13.550Z,2.30
2018-03-02T10:07:56.224Z,1.70
2018-03-02T10:10:34.355Z,2.00
2018-03-02T10:13:13.028Z,1.80
2018-03-02T10:15:53.865Z,1.35
2018-03-02T10:18:33.404Z,1.35
2018-03-02T10:21:12.220Z,1.42
2018-03-02T10:23:51.027Z,1.20
2018-03-02T10:26:31.598Z,1.60
2018-03-02T10:29:12.907Z,2.45
2018-03-02T10:31:52.715Z,1.83
2018-03-02T10:34:32.455Z,1.42
2018-03-02T10:37:12.367Z,1.73
2018-03-02T10:39:52.167Z,1.50
2018-03-02T10:42:30.771Z,1.40
2018-03-02T10:45:08.910Z,1.95
2018-03-02T10:47:47.435Z,1.42
2018-03-02T10:50:27.946Z,1.60
2018-03-02T10:53:06.887Z,2.30
2018-03-02T10:55:45.704Z,2.55
2018-03-02T10:58:24.780Z,1.73
2018-03-02T11:01:09.388Z,2.75
2018-03-02T11:03:51.774Z,1.35
2018-03-02T11:06:31.138Z,2.03
2018-03-02T11:09:12.119Z,1.33
2018-03-02T11:11:51.049Z,1.73
2018-03-02T11:14:33.679Z,1.90
2018-03-02T11:17:12.398Z,1.48
2018-03-02T11:19:52.012Z,1.20
2018-03-02T11:22:30.525Z,1.58
2018-03-02T11:25:11.027Z,2.37
2018-03-02T11:27:51.576Z,1.20
2018-03-02T11:30:30.956Z,2.90
2018-03-02T11:33:11.230Z,1.73
2018-03-02T11:35:49.734Z,1.45
2018-03-02T11:38:28.352Z,1.73
2018-03-02T11:41:06.809Z,2.00
2018-03-02T11:43:46.351Z,1.70
2018-03-02T11:46:23.887Z,1.30
2018-03-02T11:49:04.549Z,1.65
2018-03-02T11:51:44.458Z,1.20
2018-03-02T11:54:26.018Z,1.20
2018-03-02T11:57:04.540Z,1.42
2018-03-02T11:59:43.231Z,2.97
2018-03-02T12:02:21.747Z,1.17
2018-03-02T12:05:00.276Z,1.48
2018-03-02T12:07:39.154Z,1.95
2018-03-02T12:10:18.814Z,1.10
2018-03-02T12:13:01.098Z,1.30
2018-03-02T12:15:40.515Z,1.25
2018-03-02T12:18:19.342Z,1.10
2018-03-02T12:21:00.052Z,1.77
2018-03-02T12:23:38.808Z,1.50
2018-03-02T12:26:18.127Z,1.20
2018-03-02T12:28:58.788Z,1.30
2018-03-02T12:31:39.387Z,1.00
2018-03-02T12:34:19.052Z,2.10
2018-03-02T12:36:59.550Z,2.28
2018-03-02T12:39:38.045Z,2.33
2018-03-02T12:42:18.823Z,3.70
2018-03-02T12:44:57.067Z,11.57
2018-03-02T12:47:35.740Z,7.53
2018-03-02T12:50:15.709Z,9.65
2018-03-02T12:52:57.500Z,8.93
2018-03-02T12:55:35.994Z,2.87
2018-03-02T12:58:15.711Z,6.03
2018-03-02T13:00:55.383Z,4.50
2018-03-02T13:03:34.073Z,3.47
2018-03-02T13:06:12.974Z,2.00
2018-03-02T13:08:55.585Z,2.05
2018-03-02T13:11:34.651Z,1.50
2018-03-02T13:14:13.907Z,1.87
2018-03-02T13:16:51.834Z,2.12
2018-03-02T13:19:30.599Z,2.80
2018-03-02T13:22:11.319Z,1.90
2018-03-02T13:24:49.752Z,3.12
2018-03-02T13:27:41.608Z,1.42
2018-03-02T13:30:21.264Z,2.55
2018-03-02T13:33:11.992Z,2.15
2018-03-02T13:35:50.552Z,1.55
2018-03-02T13:38:29.328Z,1.75
2018-03-02T13:41:36.020Z,3.40
2018-03-02T13:44:14.310Z,2.90
2018-03-02T13:46:52.828Z,4.82
2018-03-02T13:49:43.318Z,4.20
2018-03-02T13:52:22.057Z,2.47
2018-03-02T13:55:00.552Z,2.50
2018-03-02T13:58:01.277Z,9.43
2018-03-02T14:00:41.474Z,9.63
2018-03-02T14:03:36.124Z,8.77
2018-03-02T14:06:14.726Z,3.12
2018-03-02T14:08:54.350Z,4.25
2018-03-02T14:11:34.023Z,11.60
2018-03-02T14:14:13.696Z,11.30
2018-03-02T14:16:52.543Z,25.02
2018-03-02T14:19:32.410Z,19.90
2018-03-02T14:22:13.402Z,12.52
2018-03-02T14:24:54.049Z,30.02
2018-03-02T14:27:33.612Z,41.83
2018-03-02T14:30:14.524Z,42.90
2018-03-02T14:32:54.724Z,24.40
2018-03-02T14:35:37.303Z,25.12
2018-03-02T14:38:15.744Z,74.03
2018-03-02T14:40:54.206Z,66.25
2018-03-02T14:43:32.792Z,65.90
2018-03-02T14:46:11.446Z,70.00
2018-03-02T14:48:50.013Z,141.20
2018-03-02T14:51:28.698Z,183.35
2018-03-02T14:54:07.526Z,8.60
2018-03-02T14:56:49.142Z,5.80
2018-03-02T14:59:28.951Z,13.00
2018-03-02T15:02:09.562Z,2.25
2018-03-02T15:04:50.027Z,3.53
2018-03-02T15:07:26.605Z,3.40
2018-03-02T15:12:48.738Z,4.45
2018-03-02T15:15:27.430Z,3.37
2018-03-02T15:18:08.116Z,2.87
2018-03-02T15:20:48.970Z,7.03
2018-03-02T15:23:29.525Z,13.73
2018-03-02T15:26:09.116Z,9.80
2018-03-02T15:28:47.793Z,8.30
2018-03-02T15:31:26.375Z,12.73
2018-03-02T15:34:04.768Z,5.65
2018-03-02T15:36:43.403Z,7.10
2018-03-02T15:39:24.071Z,5.20
2018-03-02T15:42:02.666Z,14.48
2018-03-02T15:44:42.436Z,6.62
2018-03-02T15:47:22.882Z,3.25
2018-03-02T15:50:03.469Z,2.30
2018-03-02T15:52:45.996Z,3.42
2018-03-02T15:55:27.517Z,3.17
2018-03-02T15:58:06.119Z,5.53
2018-03-02T16:00:46.623Z,2.37
2018-03-02T16:03:26.243Z,4.55
2018-03-02T16:06:05.074Z,3.92
2018-03-02T16:08:43.526Z,6.97
2018-03-02T16:11:22.221Z,6.15
2018-03-02T16:14:02.662Z,6.15
2018-03-02T16:16:41.326Z,9.18
2018-03-02T16:19:20.767Z,6.40
2018-03-02T16:21:58.239Z,8.85
2018-03-02T16:24:37.006Z,12.00
2018-03-02T16:27:15.469Z,3.33
2018-03-02T16:29:54.165Z,8.65
2018-03-02T16:32:32.639Z,6.43
2018-03-02T16:35:15.167Z,5.18
2018-03-02T16:37:53.863Z,3.20
2018-03-02T16:40:32.313Z,6.60
2018-03-02T16:43:13.870Z,5.53
2018-03-02T16:45:55.309Z,3.62
2018-03-02T16:48:33.843Z,8.13
2018-03-02T16:51:11.528Z,4.37
2018-03-02T16:53:52.117Z,2.72
2018-03-02T16:56:30.626Z,3.03
2018-03-02T16:59:10.203Z,6.40
2018-03-02T17:01:50.959Z,6.43
2018-03-02T17:04:31.481Z,4.65
2018-03-02T17:07:12.051Z,6.40
2018-03-02T17:09:50.429Z,3.87
2018-03-02T17:12:29.407Z,3.90
2018-03-02T17:15:11.047Z,5.72
2018-03-02T17:17:49.512Z,2.80
2018-03-02T17:20:28.021Z,2.28
2018-03-02T17:23:07.659Z,4.53
2018-03-02T17:25:49.333Z,2.50
2018-03-02T17:28:28.056Z,2.40
2018-03-02T17:31:08.598Z,4.90
2018-03-02T17:33:47.238Z,2.37
2018-03-02T17:36:25.728Z,3.60
2018-03-02T17:39:08.266Z,3.12
2018-03-02T17:41:47.047Z,5.10
2018-03-02T17:44:25.750Z,2.97
2018-03-02T17:47:05.195Z,3.28
2018-03-02T17:49:44.039Z,2.22
2018-03-02T17:52:22.704Z,2.90
2018-03-02T17:55:03.442Z,2.47
2018-03-02T17:57:42.091Z,2.22
2018-03-02T18:00:22.895Z,5.22
2018-03-02T18:03:01.512Z,2.05
2018-03-02T18:05:40.983Z,2.92
2018-03-02T18:08:19.923Z,2.95
2018-03-02T18:10:59.334Z,2.95
2018-03-02T18:13:38.201Z,3.78
2018-03-02T18:16:24.219Z,2.83
2018-03-02T18:19:03.851Z,2.80
2018-03-02T18:21:48.889Z,2.97
2018-03-02T18:24:28.112Z,2.00
2018-03-02T18:27:05.592Z,2.75
2018-03-02T18:29:44.029Z,2.28
2018-03-02T18:32:23.374Z,3.78
2018-03-02T18:35:03.242Z,3.62
2018-03-02T18:37:45.904Z,2.50
2018-03-02T18:40:25.174Z,2.60
2018-03-02T18:43:04.700Z,2.12
2018-03-02T18:45:43.297Z,2.30
2018-03-02T18:48:21.821Z,2.20
2018-03-02T18:51:00.433Z,2.80
2018-03-02T18:53:41.982Z,4.70
2018-03-02T18:56:22.811Z,2.65
2018-03-02T18:59:02.110Z,3.37
2018-03-02T19:01:40.671Z,2.10
2018-03-02T19:04:21.313Z,2.70
2018-03-02T19:07:00.092Z,6.45
2018-03-02T19:09:38.684Z,6.80
2018-03-02T19:12:17.340Z,3.05
2018-03-02T19:14:56.039Z,4.18
2018-03-02T19:17:35.847Z,3.22
2018-03-02T19:20:17.419Z,3.00
2018-03-02T19:22:58.894Z,4.07
2018-03-02T19:25:38.247Z,2.37
2018-03-02T19:28:17.118Z,3.47
2018-03-02T19:30:55.590Z,3.90
2018-03-02T19:33:35.177Z,6.30
2018-03-02T19:36:15.707Z,2.03
2018-03-02T19:38:56.133Z,2.27
2018-03-02T19:41:37.044Z,2.33
2018-03-02T19:44:14.233Z,2.37
2018-03-02T19:46:52.855Z,3.10
2018-03-02T19:49:31.393Z,4.03
2018-03-02T19:52:11.708Z,2.63
2018-03-02T19:54:51.292Z,2.23
2018-03-02T19:57:35.292Z,3.00
2018-03-02T20:00:14.430Z,5.00
2018-03-02T20:05:35.551Z,2.53
2018-03-02T20:08:13.127Z,3.10
2018-03-02T20:10:53.968Z,4.00
2018-03-02T20:13:34.555Z,3.10
2018-03-02T20:16:13.137Z,3.47
2018-03-02T20:18:53.457Z,5.60
2018-03-02T20:21:31.869Z,5.87
2018-03-02T20:24:12.484Z,3.80
2018-03-02T20:26:53.720Z,4.10
2018-03-02T20:29:32.679Z,4.43
2018-03-02T20:32:11.102Z,5.00
2018-03-02T20:37:28.374Z,4.57
2018-03-02T20:40:07.228Z,5.07
2018-03-02T20:42:46.056Z,3.97
2018-03-02T20:45:26.891Z,3.20
2018-03-02T20:48:07.511Z,2.40
2018-03-02T20:50:46.281Z,2.07
2018-03-02T20:53:24.940Z,2.60
2018-03-02T20:56:03.393Z,2.60
2018-03-02T20:58:43.126Z,2.80
2018-03-02T21:01:21.928Z,1.60
2018-03-02T21:04:00.440Z,1.33
2018-03-02T21:06:39.838Z,1.90
2018-03-02T21:09:19.558Z,1.63
2018-03-02T21:11:58.306Z,3.97
2018-03-02T21:14:36.818Z,1.87
2018-03-02T21:17:15.453Z,3.17
2018-03-02T21:19:54.025Z,1.60
2018-03-02T21:22:33.027Z,1.90
2018-03-02T21:25:11.617Z,1.40
2018-03-02T21:27:50.042Z,2.13
2018-03-02T21:30:31.592Z,2.80
2018-03-02T21:33:10.001Z,2.57
2018-03-02T21:35:47.178Z,5.53
2018-03-02T21:38:26.160Z,2.70
2018-03-02T21:41:04.798Z,1.70
2018-03-02T21:43:43.370Z,1.80
2018-03-02T21:46:23.653Z,1.40
2018-03-02T21:49:02.291Z,5.57
2018-03-02T21:51:44.792Z,1.67
2018-03-02T21:54:23.264Z,1.90
2018-03-02T21:57:01.707Z,5.37
2018-03-02T21:59:40.310Z,1.20
2018-03-02T22:02:18.732Z,2.50
2018-03-02T22:05:01.312Z,1.63
2018-03-02T22:07:41.930Z,1.60
2018-03-02T22:10:20.680Z,1.33
2018-03-02T22:12:59.570Z,1.93
2018-03-02T22:15:37.232Z,1.43
2018-03-02T22:18:16.553Z,1.40
2018-03-02T22:20:55.154Z,1.30
2018-03-02T22:23:35.786Z,1.80
2018-03-02T22:26:16.478Z,1.20
2018-03-02T22:28:55.972Z,1.87
2018-03-02T22:31:35.772Z,2.27
2018-03-02T22:34:14.754Z,1.50
2018-03-02T22:36:55.007Z,1.73
2018-03-02T22:39:33.838Z,1.60
2018-03-02T22:42:14.625Z,1.10
2018-03-02T22:44:53.407Z,1.10
2018-03-02T22:47:32.113Z,2.50
2018-03-02T22:50:11.022Z,1.37
2018-03-02T22:52:49.753Z,1.50
2018-03-02T22:55:28.509Z,1.73
2018-03-02T22:58:09.175Z,3.43
2018-03-02T23:00:49.845Z,1.30
2018-03-02T23:03:28.657Z,2.40
2018-03-02T23:06:08.278Z,1.40
2018-03-02T23:08:48.100Z,2.03
2018-03-02T23:11:26.543Z,2.27
2018-03-02T23:14:04.155Z,2.57
2018-03-02T23:16:45.191Z,1.33
2018-03-02T23:19:23.829Z,4.57
2018-03-02T23:22:06.494Z,1.80
2018-03-02T23:24:46.074Z,2.27
2018-03-02T23:27:24.703Z,2.17
2018-03-02T23:30:03.349Z,1.40
2018-03-02T23:32:42.157Z,1.40
2018-03-02T23:35:22.986Z,1.93
2018-03-02T23:38:05.000Z,2.90
2018-03-02T23:40:47.750Z,1.20
2018-03-02T23:43:34.791Z,1.40
2018-03-02T23:46:13.000Z,1.73
2018-03-02T23:48:51.536Z,1.80
2018-03-02T23:51:30.264Z,2.63
2018-03-02T23:54:10.892Z,2.20
2018-03-02T23:56:49.689Z,9.77
2018-03-02T23:59:28.169Z,3.20
